createdAt,value
2023-05-05T00:01:38.396Z,3.20
2023-05-05T00:04:40.685Z,3.17
2023-05-05T00:07:42.919Z,3.35
2023-05-05T00:10:46.038Z,2.60
2023-05-05T00:13:48.614Z,3.00
2023-05-05T00:16:50.955Z,3.35
2023-05-05T00:19:53.226Z,3.13
2023-05-05T00:22:55.622Z,2.83
2023-05-05T00:25:57.923Z,2.85
2023-05-05T00:29:00.230Z,2.92
2023-05-05T00:32:02.583Z,2.97
2023-05-05T00:35:06.239Z,2.50
2023-05-05T00:38:08.541Z,2.80
2023-05-05T00:41:11.060Z,2.72
2023-05-05T00:44:13.324Z,2.90
2023-05-05T00:47:16.782Z,2.78
2023-05-05T00:50:26.283Z,3.05
2023-05-05T00:53:29.109Z,3.00
2023-05-05T00:56:31.797Z,2.63
2023-05-05T00:59:35.039Z,3.40
2023-05-05T01:02:38.616Z,2.90
2023-05-05T01:05:53.055Z,3.28
2023-05-05T01:09:02.212Z,3.25
2023-05-05T01:12:20.210Z,2.90
2023-05-05T01:15:45.867Z,3.33
2023-05-05T01:18:58.367Z,2.83
2023-05-05T01:22:03.950Z,2.90
2023-05-05T01:25:30.049Z,3.33
2023-05-05T01:29:05.572Z,2.85
2023-05-05T01:32:15.296Z,3.42
2023-05-05T01:35:45.695Z,3.78
2023-05-05T01:38:51.865Z,3.00
2023-05-05T01:41:58.968Z,3.50
2023-05-05T01:45:04.834Z,3.53
2023-05-05T01:48:09.328Z,3.53
2023-05-05T01:51:13.175Z,3.50
2023-05-05T01:54:17.714Z,3.67
2023-05-05T01:57:21.546Z,4.00
2023-05-05T02:00:25.490Z,3.30
2023-05-05T02:03:30.676Z,2.60
2023-05-05T02:06:35.059Z,3.55
2023-05-05T02:09:38.820Z,3.70
2023-05-05T02:12:42.717Z,3.78
2023-05-05T02:15:45.608Z,3.40
2023-05-05T02:18:49.308Z,3.38
2023-05-05T02:21:51.590Z,3.22
2023-05-05T02:24:54.489Z,3.70
2023-05-05T02:27:59.822Z,3.05
2023-05-05T02:31:04.900Z,3.20
2023-05-05T02:34:08.837Z,3.50
2023-05-05T02:37:19.775Z,3.47
2023-05-05T02:40:28.712Z,3.85
2023-05-05T02:43:33.230Z,3.53
2023-05-05T02:46:38.402Z,3.55
2023-05-05T02:49:40.865Z,3.60
2023-05-05T02:52:44.792Z,3.60
2023-05-05T02:56:11.211Z,3.53
2023-05-05T02:59:39.232Z,4.10
2023-05-05T03:02:48.465Z,3.92
2023-05-05T03:09:21.277Z,3.85
2023-05-05T03:12:31.395Z,3.30
2023-05-05T03:15:51.769Z,3.72
2023-05-05T03:18:58.741Z,4.25
2023-05-05T03:22:04.249Z,3.28
2023-05-05T03:25:07.318Z,3.80
2023-05-05T03:28:09.666Z,4.13
2023-05-05T03:31:12.733Z,3.83
2023-05-05T03:34:15.526Z,4.10
2023-05-05T03:37:21.544Z,3.83
2023-05-05T03:40:36.355Z,3.25
2023-05-05T03:43:46.378Z,4.53
2023-05-05T03:46:48.662Z,4.85
2023-05-05T03:49:52.513Z,5.78
2023-05-05T03:52:54.913Z,8.30
2023-05-05T03:55:57.681Z,8.63
2023-05-05T03:59:00.033Z,7.25
2023-05-05T04:02:02.885Z,5.97
2023-05-05T04:05:05.630Z,5.32
2023-05-05T04:08:08.349Z,5.20
2023-05-05T04:11:10.967Z,4.30
2023-05-05T04:14:13.825Z,4.55
2023-05-05T04:17:16.224Z,5.03
2023-05-05T04:20:19.014Z,4.50
2023-05-05T04:23:21.503Z,4.95
2023-05-05T04:26:24.875Z,3.90
2023-05-05T04:29:27.918Z,4.82
2023-05-05T04:32:31.251Z,4.50
2023-05-05T04:35:33.811Z,3.95
2023-05-05T04:38:36.810Z,4.05
2023-05-05T04:41:40.128Z,4.00
2023-05-05T04:44:43.626Z,4.07
2023-05-05T04:47:46.641Z,4.78
2023-05-05T04:50:49.072Z,4.60
2023-05-05T04:53:52.006Z,4.55
2023-05-05T04:56:54.363Z,5.15
2023-05-05T04:59:56.704Z,5.10
2023-05-05T05:02:59.037Z,5.00
2023-05-05T05:06:01.797Z,5.18
2023-05-05T05:09:04.132Z,4.57
2023-05-05T05:12:07.956Z,5.78
2023-05-05T05:15:12.930Z,6.70
2023-05-05T05:18:15.516Z,5.47
2023-05-05T05:21:17.919Z,6.20
2023-05-05T05:24:20.294Z,6.32
2023-05-05T05:27:22.669Z,5.68
2023-05-05T05:30:26.690Z,4.63
2023-05-05T05:33:29.687Z,4.20
2023-05-05T05:36:33.700Z,3.85
2023-05-05T05:39:36.516Z,3.70
2023-05-05T05:42:40.178Z,4.05
2023-05-05T05:45:43.732Z,3.92
2023-05-05T05:48:46.124Z,3.92
2023-05-05T05:51:49.097Z,3.47
2023-05-05T05:54:51.419Z,3.70
2023-05-05T05:57:53.942Z,3.35
2023-05-05T06:00:56.504Z,3.72
2023-05-05T06:03:59.032Z,3.55
2023-05-05T06:07:01.514Z,3.38
2023-05-05T06:10:18.400Z,3.83
2023-05-05T06:13:26.717Z,4.03
2023-05-05T06:16:29.202Z,3.30
2023-05-05T06:19:34.470Z,3.75
2023-05-05T06:22:36.929Z,3.40
2023-05-05T06:25:39.463Z,2.80
2023-05-05T06:28:42.025Z,4.93
2023-05-05T06:31:44.277Z,4.43
2023-05-05T06:34:48.197Z,7.38
2023-05-05T06:37:50.567Z,3.97
2023-05-05T06:40:52.795Z,3.92
2023-05-05T06:43:55.027Z,2.70
2023-05-05T06:46:57.371Z,2.95
2023-05-05T06:49:59.618Z,2.88
2023-05-05T06:53:01.957Z,3.47
2023-05-05T06:56:04.461Z,4.30
2023-05-05T06:59:06.738Z,3.53
2023-05-05T07:02:09.021Z,3.10
2023-05-05T07:05:11.796Z,2.65
2023-05-05T07:08:14.181Z,2.97
2023-05-05T07:11:16.543Z,3.03
2023-05-05T07:14:18.811Z,2.08
2023-05-05T07:17:21.208Z,2.90
2023-05-05T07:20:24.321Z,2.83
2023-05-05T07:23:26.859Z,3.05
2023-05-05T07:26:29.222Z,3.10
2023-05-05T07:29:31.574Z,3.05
2023-05-05T07:32:33.893Z,4.03
2023-05-05T07:35:36.150Z,4.18
2023-05-05T07:38:38.409Z,4.28
2023-05-05T07:41:41.817Z,3.25
2023-05-05T07:44:44.154Z,3.08
2023-05-05T07:47:46.495Z,3.33
2023-05-05T07:50:48.808Z,3.20
2023-05-05T07:53:51.113Z,3.45
2023-05-05T07:56:53.426Z,3.45
2023-05-05T07:59:55.752Z,3.35
2023-05-05T08:02:58.246Z,3.00
2023-05-05T08:06:07.649Z,3.53
2023-05-05T08:09:10.189Z,3.85
2023-05-05T08:12:12.463Z,3.38
2023-05-05T08:15:14.765Z,3.85
2023-05-05T08:18:17.079Z,3.78
2023-05-05T08:21:19.634Z,4.47
2023-05-05T08:24:21.934Z,4.70
2023-05-05T08:27:24.229Z,4.22
2023-05-05T08:30:27.108Z,3.35
2023-05-05T08:33:29.546Z,4.63
2023-05-05T08:36:32.582Z,3.58
2023-05-05T08:39:34.991Z,3.55
2023-05-05T08:42:39.135Z,7.10
2023-05-05T08:45:42.333Z,4.47
2023-05-05T08:48:45.955Z,3.92
2023-05-05T08:51:50.718Z,3.92
2023-05-05T08:55:26.715Z,4.38
2023-05-05T08:58:31.309Z,3.65
2023-05-05T09:01:35.502Z,3.70
2023-05-05T09:04:38.351Z,4.18
2023-05-05T09:07:44.188Z,3.83
2023-05-05T09:10:49.050Z,4.05
2023-05-05T09:13:51.422Z,4.22
2023-05-05T09:16:53.706Z,4.30
2023-05-05T09:20:05.248Z,4.03
2023-05-05T09:23:11.619Z,4.47
2023-05-05T09:26:14.439Z,4.00
2023-05-05T09:29:21.330Z,3.53
2023-05-05T09:32:24.751Z,4.80
2023-05-05T09:35:27.148Z,3.72
2023-05-05T09:38:29.397Z,4.28
2023-05-05T09:41:43.558Z,4.57
2023-05-05T09:44:45.999Z,3.35
2023-05-05T09:47:49.216Z,4.22
2023-05-05T09:50:52.034Z,4.40
2023-05-05T09:53:54.321Z,4.75
2023-05-05T09:56:57.511Z,4.80
2023-05-05T10:00:01.296Z,4.65
2023-05-05T10:03:03.791Z,4.10
2023-05-05T10:06:07.890Z,4.60
2023-05-05T10:09:10.852Z,4.63
2023-05-05T10:12:13.242Z,4.43
2023-05-05T10:15:16.538Z,4.20
2023-05-05T10:18:28.231Z,4.20
2023-05-05T10:21:40.923Z,4.10
2023-05-05T10:24:53.827Z,4.22
2023-05-05T10:28:00.541Z,3.28
2023-05-05T10:31:16.505Z,3.67
2023-05-05T10:35:15.972Z,4.15
2023-05-05T10:38:19.898Z,4.03
2023-05-05T10:41:22.691Z,3.83
2023-05-05T10:44:25.324Z,3.97
2023-05-05T10:47:28.887Z,4.53
2023-05-05T10:50:37.708Z,4.57
2023-05-05T10:53:54.471Z,4.50
2023-05-05T10:57:01.301Z,4.18
2023-05-05T11:00:04.476Z,3.58
2023-05-05T14:05:01.087Z,2.80
2023-05-05T14:08:04.045Z,2.60
2023-05-05T14:11:06.597Z,2.92
2023-05-05T14:14:11.866Z,3.17
2023-05-05T14:17:14.449Z,3.28
2023-05-05T14:20:16.797Z,2.75
2023-05-05T14:23:19.212Z,3.15
2023-05-05T14:26:21.620Z,5.10
2023-05-05T14:29:23.905Z,2.58
2023-05-05T14:32:26.290Z,2.80
2023-05-05T14:35:28.652Z,2.50
2023-05-05T14:38:31.060Z,2.85
2023-05-05T14:41:33.401Z,2.72
2023-05-05T14:44:36.240Z,2.67
2023-05-05T14:47:38.634Z,2.95
2023-05-05T14:50:42.658Z,2.80
2023-05-05T14:53:45.050Z,2.80
2023-05-05T14:56:47.593Z,2.30
2023-05-05T14:59:52.035Z,3.10
2023-05-05T15:02:54.666Z,2.95
2023-05-05T15:05:57.273Z,2.78
2023-05-05T15:08:59.753Z,2.80
2023-05-05T15:12:02.090Z,2.67
2023-05-05T15:15:08.762Z,2.55
2023-05-05T15:18:11.687Z,2.67
2023-05-05T15:21:14.005Z,2.85
2023-05-05T15:24:16.380Z,2.75
2023-05-05T15:27:18.892Z,2.72
2023-05-05T15:30:21.172Z,2.40
2023-05-05T15:33:23.526Z,3.05
2023-05-05T15:36:25.833Z,2.88
2023-05-05T15:39:28.142Z,2.72
2023-05-05T15:42:32.391Z,2.38
2023-05-05T15:45:34.884Z,2.63
2023-05-05T15:48:37.346Z,2.95
2023-05-05T15:51:39.649Z,2.50
2023-05-05T15:54:41.979Z,2.50
2023-05-05T15:57:44.817Z,2.70
2023-05-05T16:00:47.425Z,2.65
2023-05-05T16:03:49.700Z,2.67
2023-05-05T16:06:52.159Z,3.38
2023-05-05T16:09:54.580Z,2.72
2023-05-05T16:12:58.301Z,2.63
2023-05-05T16:16:01.351Z,2.80
2023-05-05T16:19:03.849Z,3.00
2023-05-05T16:22:06.519Z,2.70
2023-05-05T16:25:09.781Z,2.53
2023-05-05T16:28:12.809Z,3.13
2023-05-05T16:31:15.169Z,2.95
2023-05-05T16:34:17.945Z,2.60
2023-05-05T16:37:20.672Z,2.63
2023-05-05T16:40:23.079Z,2.75
2023-05-05T16:43:25.786Z,2.65
2023-05-05T16:46:28.223Z,2.70
2023-05-05T16:49:30.890Z,2.92
2023-05-05T16:52:33.159Z,2.58
2023-05-05T16:55:35.952Z,2.53
2023-05-05T16:58:38.678Z,2.55
2023-05-05T17:01:42.111Z,2.55
2023-05-05T17:04:44.506Z,2.90
2023-05-05T17:07:48.592Z,2.65
2023-05-05T17:10:50.963Z,3.30
2023-05-05T17:13:53.448Z,2.90
2023-05-05T17:16:55.991Z,3.05
2023-05-05T17:19:58.416Z,2.88
2023-05-05T17:23:02.529Z,3.00
2023-05-05T17:26:05.545Z,2.55
2023-05-05T17:29:08.944Z,3.00
2023-05-05T17:32:14.726Z,2.80
2023-05-05T17:35:17.061Z,3.35
2023-05-05T17:38:19.327Z,3.13
2023-05-05T17:41:22.025Z,3.65
2023-05-05T17:44:24.254Z,3.08
2023-05-05T17:47:27.289Z,2.90
2023-05-05T17:50:29.649Z,3.50
2023-05-05T17:53:31.886Z,3.08
2023-05-05T17:56:35.934Z,3.75
2023-05-05T17:59:38.467Z,4.20
2023-05-05T18:02:40.916Z,5.03
2023-05-05T18:05:43.328Z,4.20
2023-05-05T18:08:45.608Z,4.10
2023-05-05T18:11:48.519Z,5.60
2023-05-05T18:14:50.905Z,4.50
2023-05-05T18:17:53.904Z,5.28
2023-05-05T18:20:56.163Z,4.22
2023-05-05T18:24:07.710Z,3.88
2023-05-05T18:27:21.096Z,3.42
2023-05-05T18:30:23.695Z,3.70
2023-05-05T18:33:26.566Z,3.55
2023-05-05T18:36:29.057Z,3.60
2023-05-05T18:39:31.748Z,5.10
2023-05-05T18:42:34.022Z,4.40
2023-05-05T18:45:36.437Z,3.85
2023-05-05T18:48:38.825Z,4.55
2023-05-05T18:51:41.425Z,3.40
2023-05-05T18:54:43.873Z,3.30
2023-05-05T18:57:46.152Z,3.83
2023-05-05T19:00:48.837Z,3.83
2023-05-05T19:03:51.536Z,3.90
2023-05-05T19:06:53.830Z,4.18
2023-05-05T19:09:56.538Z,3.75
2023-05-05T19:13:05.406Z,4.28
2023-05-05T19:16:07.838Z,4.50
2023-05-05T19:19:11.094Z,5.07
2023-05-05T19:22:13.621Z,4.25
2023-05-05T19:25:16.479Z,3.88
2023-05-05T19:28:19.478Z,4.45
2023-05-05T19:31:27.833Z,4.10
2023-05-05T19:34:30.241Z,4.35
2023-05-05T19:37:32.531Z,5.03
2023-05-05T19:40:35.038Z,6.75
2023-05-05T19:43:37.473Z,6.00
2023-05-05T19:46:39.943Z,6.13
2023-05-05T19:49:42.377Z,7.00
2023-05-05T19:52:45.090Z,6.72
2023-05-05T19:55:48.041Z,7.18
2023-05-05T19:59:00.658Z,6.95
2023-05-05T20:02:03.491Z,7.10
2023-05-05T20:05:06.493Z,6.63
2023-05-05T20:08:08.852Z,5.15
2023-05-05T20:11:11.153Z,5.18
2023-05-05T20:14:13.624Z,5.18
2023-05-05T20:17:20.271Z,4.90
2023-05-05T20:20:22.865Z,5.70
2023-05-05T20:23:29.217Z,5.05
2023-05-05T20:26:32.055Z,4.78
2023-05-05T20:29:34.547Z,4.88
2023-05-05T20:32:37.282Z,4.72
2023-05-05T20:35:39.765Z,5.13
2023-05-05T20:38:43.540Z,4.40
2023-05-05T20:41:47.162Z,4.55
2023-05-05T20:44:49.816Z,4.32
2023-05-05T20:47:52.173Z,3.80
2023-05-05T20:50:55.006Z,3.88
2023-05-05T20:53:57.980Z,4.10
2023-05-05T20:57:02.205Z,3.65
2023-05-05T21:00:05.462Z,4.18
2023-05-05T21:03:08.037Z,4.07
2023-05-05T21:06:10.521Z,4.25
2023-05-05T21:09:13.234Z,5.47
2023-05-05T21:12:15.831Z,5.45
2023-05-05T21:15:18.353Z,5.32
2023-05-05T21:18:20.828Z,5.78
2023-05-05T21:21:24.470Z,6.63
2023-05-05T21:24:28.139Z,6.68
2023-05-05T21:27:30.833Z,5.53
2023-05-05T21:30:33.139Z,5.40
2023-05-05T21:33:35.505Z,5.15
2023-05-05T21:36:38.735Z,5.97
2023-05-05T21:39:41.797Z,6.10
2023-05-05T21:42:44.550Z,6.82
2023-05-05T21:45:46.840Z,6.55
2023-05-05T21:48:49.308Z,6.32
2023-05-05T21:51:51.702Z,6.63
2023-05-05T21:54:54.007Z,5.68
2023-05-05T21:57:56.597Z,5.35
2023-05-05T22:00:58.964Z,4.72
2023-05-05T22:04:01.504Z,4.70
2023-05-05T22:07:04.117Z,5.45
2023-05-05T22:10:07.012Z,6.40
2023-05-05T22:13:10.861Z,6.25
2023-05-05T22:16:17.666Z,6.63
2023-05-05T22:19:20.295Z,6.82
2023-05-05T22:22:22.669Z,7.13
2023-05-05T22:25:25.002Z,6.22
2023-05-05T22:28:27.846Z,6.43
2023-05-05T22:31:31.092Z,6.13
2023-05-05T22:34:35.783Z,6.93
2023-05-05T22:37:38.477Z,5.80
2023-05-05T22:40:41.074Z,7.03
2023-05-05T22:43:43.409Z,6.22
2023-05-05T22:46:45.883Z,6.30
2023-05-05T22:49:48.442Z,5.40
2023-05-05T22:52:50.999Z,5.75
2023-05-05T22:55:53.303Z,5.13
2023-05-05T22:58:56.201Z,6.35
2023-05-05T23:01:59.099Z,5.07
2023-05-05T23:05:01.498Z,4.93
2023-05-05T23:08:03.979Z,5.22
2023-05-05T23:11:06.413Z,4.90
2023-05-05T23:14:08.898Z,5.45
2023-05-05T23:17:11.570Z,6.90
2023-05-05T23:20:14.416Z,6.53
2023-05-05T23:23:16.806Z,4.97
2023-05-05T23:26:19.098Z,5.03
2023-05-05T23:29:21.439Z,6.18
2023-05-05T23:32:23.879Z,5.10
2023-05-05T23:35:26.361Z,7.38
2023-05-05T23:38:28.824Z,7.88
2023-05-05T23:41:31.309Z,6.95
2023-05-05T23:44:33.689Z,7.22
2023-05-05T23:47:36.161Z,5.63
2023-05-05T23:50:38.492Z,5.75
2023-05-05T23:53:40.882Z,5.75
2023-05-05T23:56:43.248Z,6.05
2023-05-05T23:59:45.691Z,5.18
